< < Back
Terminal Aerodrome Forecast


Current Version              Previous Versions:   1  2  3  4  5  6  7  8  9  

Terminal Aerodrome Forecast

078
FTUS44 KBMX 280800 AAB
TAFANB
TAF AMD
KANB 280823Z 2808/2906 24006KT P6SM VCTS SCT030CB BKN070
      TEMPO 2808/2809 3SM TSRA
     FM281000 26007KT P6SM VCSH SCT030 BKN070
     FM281600 31012KT P6SM SCT030 BKN070
     FM290100 33005KT P6SM SKC=

Latest METAR

187
SAUS70 KWBC 281000 RRA
MTRANB
METAR KANB 280953Z AUTO 27005KT 7SM SCT038 SCT070 BKN085 25/23 A2995 RMK
AO2 RAE0854 TSE0858 SLP129 P0000 T02500233


USA.gov is the U.S. government's official web portal to all federal, state and local government web resources and services.